createdAt,value
2023-01-08T00:00:00.866Z,9
2023-01-08T00:03:01.034Z,9
2023-01-08T00:06:00.856Z,9
2023-01-08T00:09:00.857Z,9
2023-01-08T00:12:00.823Z,9
2023-01-08T00:15:00.838Z,9
2023-01-08T00:18:01.119Z,9
2023-01-08T00:21:00.831Z,9
2023-01-08T00:24:00.816Z,9.1
2023-01-08T00:27:00.819Z,9.1
2023-01-08T00:30:00.837Z,9.1
2023-01-08T00:33:00.801Z,9.1
2023-01-08T00:36:00.825Z,9.1
2023-01-08T00:39:00.814Z,9.1
2023-01-08T00:42:00.858Z,9.1
2023-01-08T00:45:00.824Z,9.1
2023-01-08T00:48:00.826Z,9
2023-01-08T00:51:00.840Z,9
2023-01-08T00:54:00.809Z,9
2023-01-08T00:57:00.813Z,9
2023-01-08T01:00:00.832Z,9.1
2023-01-08T01:03:00.999Z,9.1
2023-01-08T01:06:00.851Z,9.1
2023-01-08T01:09:01.069Z,9.1
2023-01-08T01:12:00.819Z,9.3
2023-01-08T01:15:00.981Z,9.4
2023-01-08T01:18:00.845Z,9.4
2023-01-08T01:21:00.834Z,9.4
2023-01-08T01:24:00.971Z,9.4
2023-01-08T01:27:00.922Z,9.4
2023-01-08T01:30:01.389Z,9.4
2023-01-08T01:33:00.929Z,9.3
2023-01-08T01:36:02.586Z,9.3
2023-01-08T01:39:00.916Z,9.3
2023-01-08T01:42:01.531Z,9.3
2023-01-08T01:45:00.871Z,9.3
2023-01-08T01:48:00.946Z,9.3
2023-01-08T01:51:00.839Z,9.3
2023-01-08T01:54:00.809Z,9.3
2023-01-08T01:57:01.706Z,9.3
2023-01-08T02:00:00.806Z,9.3
2023-01-08T02:03:00.828Z,9.3
2023-01-08T02:06:00.901Z,9.3
2023-01-08T02:09:01.015Z,9.3
2023-01-08T02:12:01.000Z,9.3
2023-01-08T02:15:00.921Z,9.3
2023-01-08T02:18:00.833Z,9.3
2023-01-08T02:21:00.941Z,9.3
2023-01-08T02:24:00.907Z,9.3
2023-01-08T02:27:00.978Z,9.3
2023-01-08T02:30:00.979Z,9.3
2023-01-08T02:33:00.837Z,9.3
2023-01-08T02:36:00.897Z,9.3
2023-01-08T02:39:01.244Z,9.3
2023-01-08T02:42:01.151Z,9.3
2023-01-08T02:45:00.870Z,9.3
2023-01-08T02:48:00.820Z,9.3
2023-01-08T02:51:00.882Z,9.4
2023-01-08T02:54:00.950Z,9.4
2023-01-08T02:57:01.337Z,9.4
2023-01-08T03:00:00.937Z,9.4
2023-01-08T03:03:00.800Z,9.4
2023-01-08T03:06:00.778Z,9.4
2023-01-08T03:09:00.835Z,9.4
2023-01-08T03:12:00.851Z,9.4
2023-01-08T03:15:00.852Z,9.4
2023-01-08T03:18:00.831Z,9.4
2023-01-08T03:21:00.834Z,9.4
2023-01-08T03:24:01.008Z,9.7
2023-01-08T03:27:00.991Z,9.7
2023-01-08T03:30:00.908Z,9.7
2023-01-08T03:33:00.900Z,9.7
2023-01-08T03:36:00.763Z,9.7
2023-01-08T03:39:00.856Z,9.7
2023-01-08T03:42:00.865Z,9.7
2023-01-08T03:45:00.863Z,9.7
2023-01-08T03:48:00.830Z,9.8
2023-01-08T03:51:00.822Z,9.8
2023-01-08T03:54:00.859Z,9.8
2023-01-08T03:57:00.837Z,9.8
2023-01-08T04:00:00.861Z,9.8
2023-01-08T04:03:00.889Z,9.8
2023-01-08T04:06:00.847Z,9.8
2023-01-08T04:09:00.873Z,9.8
2023-01-08T04:12:00.837Z,9.8
2023-01-08T04:15:00.915Z,9.8
2023-01-08T04:18:00.824Z,9.8
2023-01-08T04:21:00.861Z,9.8
2023-01-08T04:24:00.791Z,9.8
2023-01-08T04:27:01.042Z,9.8
2023-01-08T04:30:00.845Z,9.8
2023-01-08T04:33:00.902Z,9.8
2023-01-08T04:36:00.785Z,9.8
2023-01-08T04:39:00.816Z,9.9
2023-01-08T04:42:01.624Z,9.9
2023-01-08T04:45:01.015Z,9.9
2023-01-08T04:48:01.140Z,9.9
2023-01-08T04:51:00.837Z,9.9
2023-01-08T04:54:01.108Z,9.9
2023-01-08T04:57:01.275Z,9.9
2023-01-08T05:00:00.933Z,9.9
2023-01-08T05:03:00.973Z,9.9
2023-01-08T05:06:00.837Z,9.9
2023-01-08T05:09:00.998Z,9.9
2023-01-08T05:12:01.924Z,9.9
2023-01-08T05:15:03.806Z,10
2023-01-08T05:18:02.409Z,10
2023-01-08T05:21:03.184Z,10
2023-01-08T05:24:03.592Z,10
2023-01-08T05:27:02.186Z,10
2023-01-08T05:30:06.809Z,10
2023-01-08T05:33:02.540Z,10
2023-01-08T05:45:01.093Z,10
2023-01-08T05:48:01.021Z,10
2023-01-08T05:51:01.053Z,10
2023-01-08T05:54:00.995Z,10
2023-01-08T05:57:01.042Z,10
2023-01-08T06:00:01.003Z,10
2023-01-08T06:03:01.180Z,10
2023-01-08T06:06:01.055Z,10
2023-01-08T06:09:01.031Z,10
2023-01-08T06:12:01.089Z,10
2023-01-08T06:15:01.024Z,10
2023-01-08T06:18:01.057Z,10
2023-01-08T06:21:00.979Z,10
2023-01-08T06:24:01.338Z,10
2023-01-08T06:27:00.958Z,10
2023-01-08T06:30:01.004Z,10
2023-01-08T06:33:00.971Z,10
2023-01-08T06:36:00.959Z,10
2023-01-08T06:39:01.016Z,10
2023-01-08T06:42:01.009Z,10
2023-01-08T06:45:00.936Z,10
2023-01-08T06:48:00.967Z,10
2023-01-08T06:51:00.965Z,10
2023-01-08T06:54:00.992Z,10
2023-01-08T06:57:00.931Z,10
2023-01-08T07:00:01.123Z,10
2023-01-08T07:03:01.371Z,10
2023-01-08T07:06:01.761Z,10
2023-01-08T07:09:00.992Z,10
2023-01-08T07:12:01.042Z,10
2023-01-08T07:15:00.974Z,10
2023-01-08T07:18:01.036Z,10
2023-01-08T07:21:01.001Z,9.7
2023-01-08T07:24:01.004Z,9.7
2023-01-08T07:27:01.059Z,9.7
2023-01-08T07:30:01.105Z,9.7
2023-01-08T07:33:01.099Z,9.7
2023-01-08T07:36:01.194Z,9.7
2023-01-08T07:39:01.098Z,9.7
2023-01-08T07:42:01.029Z,9.7
2023-01-08T07:45:01.104Z,9.7
2023-01-08T07:48:01.116Z,9.7
2023-01-08T07:51:00.987Z,9.7
2023-01-08T07:54:01.084Z,9.7
2023-01-08T07:57:01.054Z,9.7
2023-01-08T08:00:01.200Z,9.7
2023-01-08T08:03:01.350Z,9.7
2023-01-08T08:06:01.005Z,9.6
2023-01-08T08:09:01.136Z,9.6
2023-01-08T08:12:01.020Z,9.5
2023-01-08T08:15:01.088Z,9.5
2023-01-08T08:18:01.138Z,9.5
2023-01-08T08:21:01.097Z,9.5
2023-01-08T08:24:01.060Z,9.5
2023-01-08T08:27:01.019Z,9.5
2023-01-08T08:30:01.452Z,9.5
2023-01-08T08:33:01.085Z,9.5
2023-01-08T08:36:01.100Z,9.5
2023-01-08T08:39:00.985Z,9.5
2023-01-08T08:42:01.032Z,9.5
2023-01-08T08:45:01.031Z,9.5
2023-01-08T08:48:01.049Z,9.5
2023-01-08T08:51:01.059Z,9.5
2023-01-08T08:54:01.064Z,9.5
2023-01-08T08:57:01.051Z,9.5
2023-01-08T09:00:01.707Z,9.4
2023-01-08T09:03:01.457Z,9.4
2023-01-08T09:06:01.057Z,9.4
2023-01-08T09:09:01.092Z,9.4
2023-01-08T09:12:01.099Z,9.4
2023-01-08T09:15:01.063Z,9.4
2023-01-08T09:18:01.114Z,9.4
2023-01-08T09:21:01.031Z,9.4
2023-01-08T09:24:01.071Z,9.4
2023-01-08T09:27:01.024Z,9.4
2023-01-08T09:30:01.109Z,9.4
2023-01-08T09:33:03.129Z,9.4
2023-01-08T09:36:01.066Z,9.4
2023-01-08T09:39:01.047Z,9.4
2023-01-08T09:42:01.080Z,9.4
2023-01-08T09:45:01.084Z,9.4
2023-01-08T09:48:01.066Z,9.4
2023-01-08T09:51:01.044Z,9.4
2023-01-08T09:54:00.977Z,9.6
2023-01-08T09:57:01.146Z,9.6
2023-01-08T10:00:01.122Z,9.6
2023-01-08T10:03:01.217Z,9.7
2023-01-08T10:06:01.120Z,9.7
2023-01-08T10:09:01.018Z,9.7
2023-01-08T10:12:01.018Z,9.7
2023-01-08T10:15:01.023Z,9.7
2023-01-08T10:18:01.018Z,9.7
2023-01-08T10:21:01.009Z,9.7
2023-01-08T10:24:01.104Z,9.7
2023-01-08T10:27:01.036Z,9.7
2023-01-08T10:30:01.120Z,9.7
2023-01-08T10:33:01.005Z,9.7
2023-01-08T10:36:01.108Z,9.7
2023-01-08T10:39:01.066Z,9.7
2023-01-08T10:42:01.016Z,9.7
2023-01-08T10:45:01.015Z,9.7
2023-01-08T10:48:01.103Z,9.7
2023-01-08T10:51:01.068Z,9.7
2023-01-08T10:54:01.275Z,9.7
2023-01-08T10:57:02.817Z,9.7
2023-01-08T11:00:01.240Z,9.7
2023-01-08T11:03:01.058Z,9.9
2023-01-08T11:06:00.974Z,9.9
2023-01-08T11:09:01.023Z,9.9
2023-01-08T11:12:00.984Z,9.9
2023-01-08T11:15:01.115Z,9.9
2023-01-08T11:18:01.089Z,9.9
2023-01-08T11:21:01.061Z,9.9
2023-01-08T11:24:01.094Z,9.9
2023-01-08T11:27:01.027Z,9.9
2023-01-08T11:30:01.088Z,9.9
2023-01-08T11:33:01.042Z,9.9
2023-01-08T11:36:01.078Z,10
2023-01-08T11:39:01.056Z,10
2023-01-08T11:42:00.977Z,10
2023-01-08T11:45:01.053Z,10
2023-01-08T11:48:00.987Z,10
2023-01-08T11:51:01.030Z,10
2023-01-08T11:54:01.133Z,10
2023-01-08T11:57:01.104Z,10
2023-01-08T12:00:01.134Z,10.1
2023-01-08T12:03:01.145Z,10.1
2023-01-08T12:06:01.017Z,10.1
2023-01-08T12:09:01.119Z,10.1
2023-01-08T12:12:01.010Z,10.1
2023-01-08T12:15:01.029Z,10.1
2023-01-08T12:18:01.052Z,10.2
2023-01-08T12:21:01.057Z,10.2
2023-01-08T12:24:01.107Z,10.2
2023-01-08T12:27:01.079Z,10.2
2023-01-08T12:30:01.191Z,10.2
2023-01-08T12:33:00.980Z,10.2
2023-01-08T12:36:01.032Z,10.2
2023-01-08T12:39:00.997Z,10.2
2023-01-08T12:42:01.148Z,10.2
2023-01-08T12:45:01.072Z,10.2
2023-01-08T12:48:01.148Z,10.2
2023-01-08T12:51:00.992Z,10.2
2023-01-08T12:54:00.999Z,10.4
2023-01-08T12:57:01.014Z,10.4
2023-01-08T13:00:01.191Z,10.4
2023-01-08T13:03:01.095Z,10.4
2023-01-08T13:06:01.108Z,10.4
2023-01-08T13:09:02.107Z,10.4
2023-01-08T13:12:01.357Z,10.4
2023-01-08T13:15:01.105Z,10.4
2023-01-08T13:18:01.083Z,10.4
2023-01-08T13:21:01.015Z,10.4
2023-01-08T13:24:00.986Z,10.4
2023-01-08T13:27:01.038Z,10.4
2023-01-08T13:30:01.363Z,10.4
2023-01-08T13:33:01.049Z,10.4
2023-01-08T13:36:01.700Z,10.4
2023-01-08T13:39:01.064Z,10.4
2023-01-08T13:42:01.035Z,10.4
2023-01-08T13:45:01.085Z,10.4
2023-01-08T13:48:01.065Z,10.6
2023-01-08T13:51:01.053Z,10.6
2023-01-08T13:54:01.015Z,10.6
2023-01-08T13:57:01.084Z,10.6
2023-01-08T14:00:01.143Z,10.6
2023-01-08T14:03:01.277Z,10.6
2023-01-08T14:06:01.015Z,10.6
2023-01-08T14:09:01.077Z,10.6
2023-01-08T14:12:00.993Z,10.6
2023-01-08T14:15:01.014Z,10.6
2023-01-08T14:18:01.061Z,10.6
2023-01-08T14:21:01.141Z,10.6
2023-01-08T14:24:01.131Z,10.6
2023-01-08T14:27:01.188Z,10.6
2023-01-08T14:30:01.080Z,10.6
2023-01-08T14:33:01.013Z,10.6
2023-01-08T14:36:01.200Z,10.6
2023-01-08T14:39:01.070Z,10.6
2023-01-08T14:42:01.073Z,10.6
2023-01-08T14:45:01.014Z,10.6
2023-01-08T14:48:01.029Z,10.6
2023-01-08T14:51:01.035Z,10.6
2023-01-08T14:54:01.067Z,10.2
2023-01-08T14:57:01.005Z,10.1
2023-01-08T15:00:01.071Z,10.1
2023-01-08T15:03:01.083Z,10.1
2023-01-08T15:06:01.039Z,10.1
2023-01-08T15:09:01.032Z,10.1
2023-01-08T15:12:01.041Z,10.1
2023-01-08T15:15:01.014Z,10.1
2023-01-08T15:18:01.044Z,10.2
2023-01-08T15:21:00.998Z,10.2
2023-01-08T15:24:01.057Z,10.2
2023-01-08T15:27:01.032Z,10.2
2023-01-08T15:30:01.072Z,10.2
2023-01-08T15:33:01.042Z,10.2
2023-01-08T15:36:00.964Z,10.2
2023-01-08T15:39:01.047Z,10.2
2023-01-08T15:42:00.929Z,10.2
2023-01-08T15:45:01.090Z,10.2
2023-01-08T15:48:00.975Z,9.8
2023-01-08T15:51:00.996Z,9.8
2023-01-08T15:54:00.993Z,9.8
2023-01-08T15:57:00.984Z,9.7
2023-01-08T16:00:01.053Z,9.7
2023-01-08T16:03:00.985Z,9.7
2023-01-08T16:06:00.962Z,9.7
2023-01-08T16:09:01.186Z,9.7
2023-01-08T16:12:01.064Z,9.7
2023-01-08T16:15:01.048Z,9.7
2023-01-08T16:18:00.927Z,9.7
2023-01-08T16:21:01.247Z,9.7
2023-01-08T16:24:01.017Z,9.7
2023-01-08T16:27:00.982Z,9.7
2023-01-08T16:30:00.980Z,9.7
2023-01-08T16:33:01.045Z,9.7
2023-01-08T16:36:01.065Z,9.7
2023-01-08T16:39:00.999Z,9.7
2023-01-08T16:42:01.013Z,9.7
2023-01-08T16:45:00.971Z,9.3
2023-01-08T16:48:00.982Z,9.3
2023-01-08T16:51:00.983Z,9.3
2023-01-08T16:54:00.981Z,9.3
2023-01-08T16:57:00.971Z,9.3
2023-01-08T17:00:01.015Z,9.3
2023-01-08T17:03:00.961Z,9.3
2023-01-08T17:06:01.048Z,9.3
2023-01-08T17:09:01.030Z,9.3
2023-01-08T17:12:01.053Z,9.3
2023-01-08T17:15:01.003Z,9.3
2023-01-08T17:18:00.973Z,9.3
2023-01-08T17:21:00.974Z,9.1
2023-01-08T17:24:01.005Z,9.1
2023-01-08T17:27:00.940Z,9.1
2023-01-08T17:30:01.055Z,9.1
2023-01-08T17:33:00.959Z,9.1
2023-01-08T17:36:01.014Z,9.1
2023-01-08T17:39:01.462Z,9.1
2023-01-08T17:42:01.028Z,9.1
2023-01-08T17:45:00.983Z,9.1
2023-01-08T17:48:00.958Z,9.1
2023-01-08T17:51:00.991Z,9.1
2023-01-08T17:54:00.995Z,9.1
2023-01-08T17:57:01.034Z,9.1
2023-01-08T18:00:01.149Z,9.1
2023-01-08T18:03:00.980Z,9.1
2023-01-08T18:06:01.031Z,9.1
2023-01-08T18:09:00.988Z,9.1
2023-01-08T18:12:01.105Z,9.1
2023-01-08T18:15:01.066Z,9.1
2023-01-08T18:18:01.194Z,9.1
2023-01-08T18:21:01.090Z,9.1
2023-01-08T18:24:01.069Z,9.1
2023-01-08T18:27:01.055Z,9.1
2023-01-08T18:30:01.083Z,9.1
2023-01-08T18:33:01.076Z,9.1
2023-01-08T18:36:01.016Z,9.1
2023-01-08T18:39:00.988Z,8.9
2023-01-08T18:42:01.225Z,8.9
2023-01-08T18:45:01.064Z,8.9
2023-01-08T18:48:01.034Z,8.9
2023-01-08T18:51:00.988Z,8.9
2023-01-08T18:54:01.023Z,8.9
2023-01-08T18:57:01.014Z,8.9
2023-01-08T19:00:01.061Z,8.9
2023-01-08T19:03:00.968Z,8.9
2023-01-08T19:06:01.057Z,8.9
2023-01-08T19:09:00.994Z,8.9
2023-01-08T19:12:00.994Z,8.9
2023-01-08T19:15:01.007Z,8.9
2023-01-08T19:18:01.124Z,8.9
2023-01-08T19:21:00.956Z,8.9
2023-01-08T19:24:00.952Z,8.9
2023-01-08T19:27:01.048Z,8.9
2023-01-08T19:30:01.064Z,8.9
2023-01-08T19:33:01.073Z,9
2023-01-08T19:36:01.052Z,9
2023-01-08T19:39:00.971Z,9
2023-01-08T19:42:01.448Z,9
2023-01-08T19:45:00.775Z,9
2023-01-08T19:48:01.000Z,9.1
2023-01-08T19:51:01.028Z,9.1
2023-01-08T19:54:01.125Z,9.1
2023-01-08T19:57:00.990Z,9.1
2023-01-08T20:00:00.986Z,9
2023-01-08T20:03:01.018Z,9
2023-01-08T20:06:00.999Z,9
2023-01-08T20:09:00.992Z,9
2023-01-08T20:12:01.074Z,9
2023-01-08T20:15:00.962Z,9
2023-01-08T20:18:01.028Z,9
2023-01-08T20:21:00.957Z,9
2023-01-08T20:24:00.987Z,8.8
2023-01-08T20:27:01.095Z,8.8
2023-01-08T20:30:01.089Z,8.8
2023-01-08T20:33:01.005Z,8.8
2023-01-08T20:36:00.967Z,8.8
2023-01-08T20:39:01.021Z,8.8
2023-01-08T20:42:05.105Z,8.8
2023-01-08T20:45:01.148Z,8.8
2023-01-08T20:48:00.947Z,8.8
2023-01-08T20:51:01.009Z,8.4
2023-01-08T20:54:00.939Z,8.4
2023-01-08T20:57:01.042Z,8.4
2023-01-08T21:00:01.095Z,8.3
2023-01-08T21:03:01.006Z,8.3
2023-01-08T21:06:00.981Z,8.3
2023-01-08T21:09:00.950Z,8.3
2023-01-08T21:12:01.156Z,8.3
2023-01-08T21:15:00.989Z,8.3
2023-01-08T21:18:01.036Z,8.3
2023-01-08T21:21:01.006Z,8.3
2023-01-08T21:24:00.972Z,8.2
2023-01-08T21:27:01.003Z,8.2
2023-01-08T21:30:01.088Z,8.2
2023-01-08T21:33:00.958Z,8.2
2023-01-08T21:36:00.958Z,8.2
2023-01-08T21:39:01.112Z,8.2
2023-01-08T21:42:00.986Z,8.2
2023-01-08T21:45:00.994Z,8.2
2023-01-08T21:48:01.000Z,8.1
2023-01-08T21:51:00.991Z,8.1
2023-01-08T21:54:01.012Z,8.1
2023-01-08T21:57:00.983Z,8.1
2023-01-08T22:00:01.015Z,8.1
2023-01-08T22:03:01.025Z,8.1
2023-01-08T22:06:00.935Z,8.1
2023-01-08T22:09:01.026Z,8.1
2023-01-08T22:12:01.012Z,8.1
2023-01-08T22:15:01.020Z,8.1
2023-01-08T22:18:01.061Z,8.1
2023-01-08T22:21:01.015Z,8.1
2023-01-08T22:24:00.976Z,8.1
2023-01-08T22:27:01.001Z,8
2023-01-08T22:30:01.040Z,8
2023-01-08T22:33:01.094Z,8
2023-01-08T22:36:01.167Z,8
2023-01-08T22:39:01.064Z,8
2023-01-08T22:42:00.976Z,8
2023-01-08T22:45:01.024Z,8
2023-01-08T22:48:01.241Z,7.9
2023-01-08T22:51:00.961Z,7.9
2023-01-08T22:54:01.204Z,7.9
2023-01-08T22:57:00.980Z,7.9
2023-01-08T23:00:01.508Z,7.9
2023-01-08T23:03:01.113Z,7.9
2023-01-08T23:06:00.886Z,7.9
2023-01-08T23:09:01.023Z,7.6
2023-01-08T23:12:00.999Z,7.6
2023-01-08T23:15:01.007Z,7.6
2023-01-08T23:18:00.957Z,7.6
2023-01-08T23:21:00.959Z,7.6
2023-01-08T23:24:01.004Z,7.6
2023-01-08T23:27:00.972Z,7
2023-01-08T23:30:00.966Z,7
2023-01-08T23:33:00.965Z,7
2023-01-08T23:36:00.983Z,7
2023-01-08T23:39:01.014Z,7
2023-01-08T23:42:01.053Z,7
2023-01-08T23:45:01.008Z,6.8
2023-01-08T23:48:00.975Z,6.8
2023-01-08T23:51:00.955Z,6.8
2023-01-08T23:54:00.973Z,6.8
2023-01-08T23:57:00.963Z,6.8
